Time;durP1;ratioP1;P1;durP2;ratioP2;P2;SDS_P1;SDS_P2;PMS_P1;PMS_P2;Temp;Humidity;BMP_temperature;BMP_pressure;BME280_temperature;BME280_humidity;BME280_pressure;Samples;Min_cycle;Max_cycle;Signal;HPM_P1;HPM_P2
2021/01/28 00:01:49;;;;;;;;;;;;;;;;;;5089698;28;5891;-74
2021/01/28 00:04:15;;;;;;;;;;;;;;;;;;5081535;28;5838;-73
2021/01/28 00:06:40;;;;;;;;;;;;;;;;;;5090649;28;3240;-73
2021/01/28 00:09:05;;;;;;;;;;;;;;;;;;5077574;28;5203;-73
2021/01/28 00:11:30;;;;;;;;;;;;;;;;;;5079669;28;5853;-73
2021/01/28 00:13:56;;;;;;;;;;;;;;;;;;5088644;28;5642;-73
2021/01/28 00:16:22;;;;;;;;;;;;;;;;;;5083488;28;4830;-73
2021/01/28 00:18:47;;;;;;;;;;;;;;;;;;5074152;28;2867;-73
2021/01/28 00:21:12;;;;;;;;;;;;;;;;;;5088110;28;5901;-74
2021/01/28 00:23:37;;;;;;;;;;;;;;;;;;5091254;28;5625;-73
2021/01/28 00:26:03;;;;;;;;;;;;;;;;;;5073217;28;5006;-73
2021/01/28 00:28:28;;;;;;;;;;;;;;;;;;5073684;28;5743;-73
2021/01/28 00:30:53;;;;;;;;;;;;;;;;;;5074087;28;3257;-73
2021/01/28 00:33:21;;;;;;;;;;;;;;;;;;5080010;28;5573;-73
2021/01/28 00:35:47;;;;;;;;;;;;;;;;;;5077846;28;5928;-73
2021/01/28 00:38:14;;;;;;;;;;;;;;;;;;5079898;28;6087;-73
2021/01/28 00:40:39;;;;;;;;;;;;;;;;;;5075964;28;5784;-74
2021/01/28 00:43:04;;;;;;;;;;;;;;;;;;5086602;28;3238;-73
2021/01/28 00:45:31;;;;;;;;;;;;;;;;;;5083504;28;6036;-73
2021/01/28 00:47:57;;;;;;;;;;;;;;;;;;5092078;28;5615;-73
2021/01/28 00:50:23;;;;;;;;;;;;;;;;;;5075437;28;5843;-73
2021/01/28 00:52:48;;;;;;;;;;;;;;;;;;5094832;28;5549;-73
2021/01/28 00:55:14;;;;;;;;;;;;;;;;;;5083733;28;4501;-73
2021/01/28 00:57:39;;;;;;;;;;;;;;;;;;5077683;28;5640;-73
2021/01/28 01:00:31;;;;;;;;;;;;;;;;;;5087210;28;5773;-73
2021/01/28 01:02:57;;;;;;;;;;;;;;;;;;5085004;28;5752;-73
2021/01/28 01:05:23;;;;;;;;;;;;;;;;;;5076418;28;3067;-73
2021/01/28 01:07:49;;;;;;;;;;;;;;;;;;5086775;28;6026;-73
2021/01/28 01:10:27;;;;;;;;;;;;;;;;;;5077381;28;4900;-73
2021/01/28 01:12:52;;;;;;;;;;;;;;;;;;5083433;28;5775;-73
2021/01/28 01:15:17;;;;;;;;;;;;;;;;;;5084383;28;3185;-73
2021/01/28 01:17:42;;;;;;;;;;;;;;;;;;5083178;28;5974;-73
2021/01/28 01:20:08;;;;;;;;;;;;;;;;;;5077401;28;5956;-73
2021/01/28 01:22:33;;;;;;;;;;;;;;;;;;5080553;28;5683;-73
2021/01/28 01:24:58;;;;;;;;;;;;;;;;;;5076747;28;3324;-73
2021/01/28 01:27:24;;;;;;;;;;;;;;;;;;5080692;28;6083;-74
2021/01/28 01:29:49;;;;;;;;;;;;;;;;;;5086405;28;6197;-73
2021/01/28 01:32:14;;;;;;;;;;;;;;;;;;5088140;28;4776;-73
2021/01/28 01:34:39;;;;;;;;;;;;;;;;;;5093022;28;5057;-73
2021/01/28 01:37:05;;;;;;;;;;;;;;;;;;5083943;28;3181;-73
2021/01/28 01:39:30;;;;;;;;;;;;;;;;;;5078375;28;5281;-73
2021/01/28 01:41:55;;;;;;;;;;;;;;;;;;5087901;28;5812;-73
2021/01/28 01:44:20;;;;;;;;;;;;;;;;;;5080920;28;5774;-73
2021/01/28 01:46:51;;;;;;;;;;;;;;;;;;5093828;28;5296;-73
2021/01/28 01:49:21;;;;;;;;;;;;;;;;;;5082781;28;5277;-73
2021/01/28 01:51:46;;;;;;;;;;;;;;;;;;5092768;28;3210;-73
2021/01/28 01:54:19;;;;;;;;;;;;;;;;;;5082441;28;5872;-73
2021/01/28 01:56:48;;;;;;;;;;;;;;;;;;5093101;28;6013;-74
2021/01/28 01:59:19;;;;;;;;;;;;;;;;;;5077379;28;5626;-73
2021/01/28 02:01:47;;;;;;;;;;;;;;;;;;5083920;28;5580;-73
2021/01/28 02:04:13;;;;;;;;;;;;;;;;;;5086245;28;3214;-74
2021/01/28 02:06:44;;;;;;;;;;;;;;;;;;5076290;28;2941;-73
2021/01/28 02:09:10;;;;;;;;;;;;;;;;;;5085211;28;6030;-73
2021/01/28 02:11:36;;;;;;;;;;;;;;;;;;5092264;28;4868;-74
2021/01/28 02:14:02;;;;;;;;;;;;;;;;;;5090038;28;6135;-73
2021/01/28 02:16:33;;;;;;;;;;;;;;;;;;5077373;28;5563;-74
2021/01/28 02:19:00;;;;;;;;;;;;;;;;;;5094041;28;2231;-74
2021/01/28 02:21:33;;;;;;;;;;;;;;;;;;5092230;28;6153;-74
2021/01/28 02:24:15;;;;;;;;;;;;;;;;;;5086235;28;5901;-74
2021/01/28 02:26:44;;;;;;;;;;;;;;;;;;5080645;28;5377;-74
2021/01/28 02:29:10;;;;;;;;;;;;;;;;;;5087118;28;5700;-74
2021/01/28 02:31:36;;;;;;;;;;;;;;;;;;5059460;28;4632;-73
2021/01/28 02:34:01;;;;;;;;;;;;;;;;;;5094200;28;1694;-73
2021/01/28 02:36:34;;;;;;;;;;;;;;;;;;5082654;28;5342;-74
2021/01/28 02:38:59;;;;;;;;;;;;;;;;;;5084988;28;5959;-73
2021/01/28 02:41:25;;;;;;;;;;;;;;;;;;5082533;28;5985;-73
2021/01/28 02:43:51;;;;;;;;;;;;;;;;;;5092928;28;5847;-73
2021/01/28 02:46:18;;;;;;;;;;;;;;;;;;5091705;28;5813;-73
2021/01/28 02:48:43;;;;;;;;;;;;;;;;;;5075228;28;4159;-73
2021/01/28 02:51:09;;;;;;;;;;;;;;;;;;5073990;28;5581;-73
2021/01/28 02:53:39;;;;;;;;;;;;;;;;;;5076182;28;3206;-73
2021/01/28 02:56:04;;;;;;;;;;;;;;;;;;5081545;28;5920;-73
2021/01/28 02:58:30;;;;;;;;;;;;;;;;;;5080227;28;5219;-73
2021/01/28 03:00:55;;;;;;;;;;;;;;;;;;5074056;28;5909;-73
2021/01/28 03:03:20;;;;;;;;;;;;;;;;;;5077648;28;5259;-73
2021/01/28 03:05:45;;;;;;;;;;;;;;;;;;5086938;28;5814;-73
2021/01/28 03:08:11;;;;;;;;;;;;;;;;;;5079878;28;3010;-74
2021/01/28 03:10:36;;;;;;;;;;;;;;;;;;5080106;28;5942;-73
2021/01/28 03:13:01;;;;;;;;;;;;;;;;;;5074187;28;3988;-73
2021/01/28 03:15:28;;;;;;;;;;;;;;;;;;5078054;28;5185;-73
2021/01/28 03:17:54;;;;;;;;;;;;;;;;;;5090629;28;5663;-73
2021/01/28 03:20:20;;;;;;;;;;;;;;;;;;5084430;28;3058;-73
2021/01/28 03:22:45;;;;;;;;;;;;;;;;;;5074678;28;5915;-73
2021/01/28 03:25:12;;;;;;;;;;;;;;;;;;5074812;28;6082;-73
2021/01/28 03:27:38;;;;;;;;;;;;;;;;;;5075580;28;4799;-73
2021/01/28 03:30:08;;;;;;;;;;;;;;;;;;5075824;28;5934;-74
2021/01/28 03:32:33;;;;;;;;;;;;;;;;;;5094214;28;1647;-74
2021/01/28 03:34:58;;;;;;;;;;;;;;;;;;5091213;28;6049;-74
2021/01/28 03:37:24;;;;;;;;;;;;;;;;;;5081226;28;6026;-73
2021/01/28 03:39:49;;;;;;;;;;;;;;;;;;5073716;28;5657;-73
2021/01/28 03:42:14;;;;;;;;;;;;;;;;;;5084828;28;5651;-73
2021/01/28 03:44:39;;;;;;;;;;;;;;;;;;5089552;28;1650;-73
2021/01/28 03:47:05;;;;;;;;;;;;;;;;;;5091773;28;5998;-73
2021/01/28 03:49:30;;;;;;;;;;;;;;;;;;5090465;28;5997;-73
2021/01/28 03:51:55;;;;;;;;;;;;;;;;;;5085078;28;5823;-73
2021/01/28 03:54:20;;;;;;;;;;;;;;;;;;5083834;28;5671;-73
2021/01/28 03:56:45;;;;;;;;;;;;;;;;;;5073319;28;5789;-73
2021/01/28 03:59:11;;;;;;;;;;;;;;;;;;5074545;28;2948;-73
2021/01/28 04:01:36;;;;;;;;;;;;;;;;;;5074062;28;5344;-73
2021/01/28 04:04:01;;;;;;;;;;;;;;;;;;5081504;28;4986;-73
2021/01/28 04:06:26;;;;;;;;;;;;;;;;;;5090437;28;6013;-73
2021/01/28 04:08:52;;;;;;;;;;;;;;;;;;5092003;28;5754;-73
2021/01/28 04:11:17;;;;;;;;;;;;;;;;;;5074523;28;2955;-73
2021/01/28 04:13:42;;;;;;;;;;;;;;;;;;5084979;28;6289;-73
2021/01/28 04:16:07;;;;;;;;;;;;;;;;;;5089286;28;5308;-73
2021/01/28 04:18:32;;;;;;;;;;;;;;;;;;5087456;28;5458;-73
2021/01/28 04:20:58;;;;;;;;;;;;;;;;;;5073999;28;5049;-73
2021/01/28 04:23:23;;;;;;;;;;;;;;;;;;5080701;28;2964;-73
2021/01/28 04:25:48;;;;;;;;;;;;;;;;;;5075620;28;6000;-73
2021/01/28 04:28:13;;;;;;;;;;;;;;;;;;5074846;28;5868;-73
2021/01/28 04:30:39;;;;;;;;;;;;;;;;;;5073604;28;5713;-73
2021/01/28 04:33:04;;;;;;;;;;;;;;;;;;5073495;28;5593;-73
2021/01/28 04:35:29;;;;;;;;;;;;;;;;;;5080572;28;3034;-73
2021/01/28 04:37:55;;;;;;;;;;;;;;;;;;5072847;28;6062;-73
2021/01/28 04:40:27;;;;;;;;;;;;;;;;;;5078510;28;4774;-73
2021/01/28 04:42:53;;;;;;;;;;;;;;;;;;5081285;28;4750;-73
2021/01/28 04:45:21;;;;;;;;;;;;;;;;;;5087193;28;5656;-73
2021/01/28 04:47:53;;;;;;;;;;;;;;;;;;5093084;28;5841;-73
2021/01/28 04:50:24;;;;;;;;;;;;;;;;;;5090126;28;3014;-73
2021/01/28 04:52:49;;;;;;;;;;;;;;;;;;5087829;28;5935;-73
2021/01/28 04:55:16;;;;;;;;;;;;;;;;;;5064132;28;5887;-73
2021/01/28 04:57:42;;;;;;;;;;;;;;;;;;5087341;28;5825;-73
2021/01/28 05:00:07;;;;;;;;;;;;;;;;;;5090838;28;5619;-73
2021/01/28 05:02:33;;;;;;;;;;;;;;;;;;5074195;28;3174;-73
2021/01/28 05:04:59;;;;;;;;;;;;;;;;;;5091720;28;5869;-73
2021/01/28 05:07:29;;;;;;;;;;;;;;;;;;5080158;28;6036;-73
2021/01/28 05:10:20;;;;;;;;;;;;;;;;;;5080026;28;5937;-73
2021/01/28 05:12:53;;;;;;;;;;;;;;;;;;5029609;28;5994;-73
2021/01/28 05:15:20;;;;;;;;;;;;;;;;;;5029038;28;5062;-73
2021/01/28 05:17:54;;;;;;;;;;;;;;;;;;5014551;28;4697;-73
2021/01/28 05:20:21;;;;;;;;;;;;;;;;;;5029010;28;4496;-73
2021/01/28 05:22:55;;;;;;;;;;;;;;;;;;5028970;28;5699;-73
2021/01/28 05:25:32;;;;;;;;;;;;;;;;;;5031155;28;5662;-73
2021/01/28 05:27:57;;;;;;;;;;;;;;;;;;5033502;28;3220;-73
2021/01/28 05:30:37;;;;;;;;;;;;;;;;;;5032411;28;5881;-73
2021/01/28 05:33:07;;;;;;;;;;;;;;;;;;5032384;28;6047;-73
2021/01/28 05:35:33;;;;;;;;;;;;;;;;;;5032583;28;1771;-73
2021/01/28 05:38:04;;;;;;;;;;;;;;;;;;5018994;28;6175;-73
2021/01/28 05:40:29;;;;;;;;;;;;;;;;;;5017251;28;5909;-71
2021/01/28 05:42:54;;;;;;;;;;;;;;;;;;5021901;28;5747;-71
2021/01/28 05:45:27;;;;;;;;;;;;;;;;;;5032117;28;5626;-66
2021/01/28 05:47:53;;;;;;;;;;;;;;;;;;5008395;28;5906;-68
2021/01/28 05:50:23;;;;;;;;;;;;;;;;;;5053643;28;3262;-71
2021/01/28 05:52:49;;;;;;;;;;;;;;;;;;5067899;28;5928;-76
2021/01/28 05:55:14;;;;;;;;;;;;;;;;;;5065243;28;5274;-71
2021/01/28 05:57:42;;;;;;;;;;;;;;;;;;5055450;28;4710;-66
2021/01/28 06:00:23;;;;;;;;;;;;;;;;;;5066310;28;5752;-67
2021/01/28 06:03:07;;;;;;;;;;;;;;;;;;5069026;28;5788;-66
2021/01/28 06:05:54;;;;;;;;;;;;;;;;;;5063562;28;3160;-66
2021/01/28 06:08:31;;;;;;;;;;;;;;;;;;5072739;28;2984;-65
2021/01/28 06:11:15;;;;;;;;;;;;;;;;;;5070941;28;5322;-66
2021/01/28 06:13:55;;;;;;;;;;;;;;;;;;5070939;28;5500;-64
2021/01/28 06:16:23;;;;;;;;;;;;;;;;;;5062473;28;6091;-65
2021/01/28 06:18:51;;;;;;;;;;;;;;;;;;5070842;28;5519;-65
2021/01/28 06:21:26;;;;;;;;;;;;;;;;;;5072905;28;6224;-67
2021/01/28 06:24:09;;;;;;;;;;;;;;;;;;5061963;28;5730;-67
2021/01/28 06:26:49;;;;;;;;;;;;;;;;;;5070579;28;2929;-64
2021/01/28 06:29:26;;;;;;;;;;;;;;;;;;5054958;28;3247;-65
2021/01/28 06:32:04;;;;;;;;;;;;;;;;;;5068466;28;6107;-65
2021/01/28 06:34:47;;;;;;;;;;;;;;;;;;5058343;28;5632;-66
2021/01/28 06:37:25;;;;;;;;;;;;;;;;;;5070351;28;3418;-66
2021/01/28 06:39:51;;;;;;;;;;;;;;;;;;5071682;28;5573;-66
2021/01/28 06:42:35;;;;;;;;;;;;;;;;;;5070458;28;5583;-66
2021/01/28 06:45:12;;;;;;;;;;;;;;;;;;5071402;28;4994;-66
2021/01/28 06:47:58;;;;;;;;;;;;;;;;;;5088418;28;1713;-66
2021/01/28 06:50:31;;;;;;;;;;;;;;;;;;5074964;28;2832;-66
2021/01/28 06:53:12;;;;;;;;;;;;;;;;;;5079696;28;5479;-66
2021/01/28 06:55:46;;;;;;;;;;;;;;;;;;5067462;28;5228;-65
2021/01/28 06:58:12;;;;;;;;;;;;;;;;;;5084629;28;5280;-65
2021/01/28 07:00:55;;;;;;;;;;;;;;;;;;5084900;28;5259;-65
2021/01/28 07:03:21;;;;;;;;;;;;;;;;;;5074534;28;5046;-65
2021/01/28 07:05:52;;;;;;;;;;;;;;;;;;5083949;28;4971;-65
2021/01/28 07:08:17;;;;;;;;;;;;;;;;;;5083548;28;2911;-65
2021/01/28 07:10:43;;;;;;;;;;;;;;;;;;5086770;28;5236;-65
2021/01/28 07:13:12;;;;;;;;;;;;;;;;;;5089228;28;5014;-65
2021/01/28 07:15:38;;;;;;;;;;;;;;;;;;5091432;28;5985;-62
2021/01/28 07:18:08;;;;;;;;;;;;;;;;;;5079088;28;5382;-62
2021/01/28 07:20:37;;;;;;;;;;;;;;;;;;5082122;28;3190;-61
2021/01/28 07:23:18;;;;;;;;;;;;;;;;;;5088599;28;6071;-62
2021/01/28 07:25:44;;;;;;;;;;;;;;;;;;5087660;28;5817;-63
2021/01/28 07:28:19;;;;;;;;;;;;;;;;;;5091438;28;5364;-63
2021/01/28 07:31:10;;;;;;;;;;;;;;;;;;5082950;28;5620;-63
2021/01/28 07:33:37;;;;;;;;;;;;;;;;;;5010416;28;6076;-63
2021/01/28 07:36:22;;;;;;;;;;;;;;;;;;5009286;28;5597;-63
2021/01/28 07:38:52;;;;;;;;;;;;;;;;;;5010967;28;5827;-62
2021/01/28 07:41:17;;;;;;;;;;;;;;;;;;5010764;28;2988;-64
2021/01/28 07:43:44;;;;;;;;;;;;;;;;;;5009812;28;5686;-65
2021/01/28 07:46:10;;;;;;;;;;;;;;;;;;5009624;28;5924;-67
2021/01/28 07:48:35;;;;;;;;;;;;;;;;;;5009081;28;5712;-64
2021/01/28 07:51:19;;;;;;;;;;;;;;;;;;5009926;28;4998;-64
2021/01/28 07:53:48;;;;;;;;;;;;;;;;;;5011177;28;1642;-63
2021/01/28 07:56:32;;;;;;;;;;;;;;;;;;5008851;28;3050;-65
2021/01/28 07:58:58;;;;;;;;;;;;;;;;;;5009003;28;5826;-63
2021/01/28 08:01:23;;;;;;;;;;;;;;;;;;5009701;28;6144;-62
2021/01/28 08:04:13;;;;;;;;;;;;;;;;;;5009853;28;5808;-63
2021/01/28 08:06:39;;;;;;;;;;;;;;;;;;5006828;28;5268;-62
2021/01/28 08:09:14;;;;;;;;;;;;;;;;;;5009202;28;5709;-62
2021/01/28 08:11:39;;;;;;;;;;;;;;;;;;5081338;28;3248;-63
2021/01/28 08:14:06;;;;;;;;;;;;;;;;;;5083517;28;4802;-62
2021/01/28 08:16:32;;;;;;;;;;;;;;;;;;5072484;28;4820;-62
2021/01/28 08:19:19;;;;;;;;;;;;;;;;;;5084148;28;5949;-63
2021/01/28 08:21:44;;;;;;;;;;;;;;;;;;5078206;28;5754;-63
2021/01/28 08:24:20;;;;;;;;;;;;;;;;;;5090111;28;5692;-62
2021/01/28 08:26:45;;;;;;;;;;;;;;;;;;5088601;28;1786;-65
2021/01/28 08:29:21;;;;;;;;;;;;;;;;;;5077332;28;4959;-65
2021/01/28 08:31:55;;;;;;;;;;;;;;;;;;5090498;28;6067;-66
2021/01/28 08:34:28;;;;;;;;;;;;;;;;;;5082714;28;6230;-65
2021/01/28 08:36:58;;;;;;;;;;;;;;;;;;5078164;28;5750;-68
2021/01/28 08:39:25;;;;;;;;;;;;;;;;;;5087749;28;6053;-66
2021/01/28 08:41:59;;;;;;;;;;;;;;;;;;5082833;28;4964;-65
2021/01/28 08:44:25;;;;;;;;;;;;;;;;;;5090251;28;3229;-65
2021/01/28 08:47:01;;;;;;;;;;;;;;;;;;5092853;28;5395;-65
2021/01/28 08:49:26;;;;;;;;;;;;;;;;;;5073504;28;5982;-66
2021/01/28 08:51:59;;;;;;;;;;;;;;;;;;5080426;28;4609;-63
2021/01/28 08:54:27;;;;;;;;;;;;;;;;;;5081265;28;5596;-65
2021/01/28 08:56:54;;;;;;;;;;;;;;;;;;5088791;28;5679;-64
2021/01/28 08:59:20;;;;;;;;;;;;;;;;;;5085164;28;2947;-64
2021/01/28 09:01:50;;;;;;;;;;;;;;;;;;5088426;28;5256;-65
2021/01/28 09:04:20;;;;;;;;;;;;;;;;;;5084870;28;5738;-64
2021/01/28 09:06:47;;;;;;;;;;;;;;;;;;5089292;28;4949;-65
2021/01/28 09:09:17;;;;;;;;;;;;;;;;;;5083933;28;5776;-65
2021/01/28 09:11:42;;;;;;;;;;;;;;;;;;5092003;28;1551;-65
2021/01/28 09:14:23;;;;;;;;;;;;;;;;;;5075798;28;6145;-65
2021/01/28 09:16:50;;;;;;;;;;;;;;;;;;5078908;28;5231;-65
2021/01/28 09:19:16;;;;;;;;;;;;;;;;;;5091376;28;5837;-64
2021/01/28 09:21:43;;;;;;;;;;;;;;;;;;5091158;28;5962;-65
2021/01/28 09:24:11;;;;;;;;;;;;;;;;;;5079261;28;5649;-64
2021/01/28 09:26:36;;;;;;;;;;;;;;;;;;5084653;28;3245;-64
2021/01/28 09:29:16;;;;;;;;;;;;;;;;;;5084913;28;5851;-65
2021/01/28 09:31:42;;;;;;;;;;;;;;;;;;5091813;28;5499;-64
2021/01/28 09:34:11;;;;;;;;;;;;;;;;;;5085648;28;5197;-64
2021/01/28 09:36:37;;;;;;;;;;;;;;;;;;5080939;28;4997;-64
2021/01/28 09:39:02;;;;;;;;;;;;;;;;;;5092524;28;4997;-65
2021/01/28 09:41:31;;;;;;;;;;;;;;;;;;5087813;28;3038;-65
2021/01/28 09:43:57;;;;;;;;;;;;;;;;;;5080451;28;5264;-71
2021/01/28 09:46:24;;;;;;;;;;;;;;;;;;5082219;28;5626;-67
2021/01/28 09:48:51;;;;;;;;;;;;;;;;;;5079633;28;3210;-66
2021/01/28 09:51:22;;;;;;;;;;;;;;;;;;5091289;28;5320;-66
2021/01/28 09:54:16;;;;;;;;;;;;;;;;;;5093044;28;4617;-66
2021/01/28 09:56:42;;;;;;;;;;;;;;;;;;5070963;28;3162;-67
2021/01/28 09:59:08;;;;;;;;;;;;;;;;;;5077411;28;5296;-68
2021/01/28 10:01:34;;;;;;;;;;;;;;;;;;5091298;28;4836;-70
2021/01/28 10:03:59;;;;;;;;;;;;;;;;;;5093564;28;5229;-68
2021/01/28 10:06:24;;;;;;;;;;;;;;;;;;5081004;28;5012;-66
2021/01/28 10:08:49;;;;;;;;;;;;;;;;;;5072536;28;5030;-70
2021/01/28 10:11:15;;;;;;;;;;;;;;;;;;5087583;28;2863;-69
2021/01/28 10:13:42;;;;;;;;;;;;;;;;;;5079798;28;5603;-69
2021/01/28 10:16:07;;;;;;;;;;;;;;;;;;5092315;28;5143;-69
2021/01/28 10:18:32;;;;;;;;;;;;;;;;;;5089524;28;6071;-71
2021/01/28 10:20:58;;;;;;;;;;;;;;;;;;5082851;28;4545;-69
2021/01/28 10:23:24;;;;;;;;;;;;;;;;;;5092419;28;3256;-69
2021/01/28 10:25:49;;;;;;;;;;;;;;;;;;5076749;28;6041;-65
2021/01/28 10:28:14;;;;;;;;;;;;;;;;;;5074916;28;6192;-71
2021/01/28 10:30:39;;;;;;;;;;;;;;;;;;5076973;28;5880;-65
2021/01/28 10:33:05;;;;;;;;;;;;;;;;;;5062382;28;5651;-65
2021/01/28 10:35:31;;;;;;;;;;;;;;;;;;5075318;28;3291;-65
2021/01/28 10:37:57;;;;;;;;;;;;;;;;;;5074649;28;4780;-66
2021/01/28 10:40:23;;;;;;;;;;;;;;;;;;5085350;28;5979;-65
2021/01/28 10:42:48;;;;;;;;;;;;;;;;;;5088327;28;5782;-65
2021/01/28 10:45:17;;;;;;;;;;;;;;;;;;5079621;28;5703;-66
2021/01/28 10:47:42;;;;;;;;;;;;;;;;;;5068621;28;1502;-66
2021/01/28 10:50:08;;;;;;;;;;;;;;;;;;5059376;28;6075;-65
2021/01/28 10:52:33;;;;;;;;;;;;;;;;;;5086015;28;5607;-66
2021/01/28 10:54:58;;;;;;;;;;;;;;;;;;5079202;28;5979;-65
2021/01/28 10:57:23;;;;;;;;;;;;;;;;;;5076050;28;6043;-66
2021/01/28 10:59:49;;;;;;;;;;;;;;;;;;5076753;28;4613;-66
2021/01/28 11:02:14;;;;;;;;;;;;;;;;;;5079809;28;2900;-67
2021/01/28 11:04:39;;;;;;;;;;;;;;;;;;5084133;28;4998;-66
2021/01/28 11:07:04;;;;;;;;;;;;;;;;;;5084012;28;5556;-66
2021/01/28 11:09:30;;;;;;;;;;;;;;;;;;5087591;28;5850;-65
2021/01/28 11:11:56;;;;;;;;;;;;;;;;;;5080747;28;5739;-65
2021/01/28 11:14:21;;;;;;;;;;;;;;;;;;5073382;28;2951;-65
2021/01/28 11:16:47;;;;;;;;;;;;;;;;;;5084599;28;5595;-65
2021/01/28 11:19:12;;;;;;;;;;;;;;;;;;5083451;28;5364;-65
2021/01/28 11:21:37;;;;;;;;;;;;;;;;;;5077726;28;5699;-63
2021/01/28 11:24:03;;;;;;;;;;;;;;;;;;5091289;28;5024;-64
2021/01/28 11:26:28;;;;;;;;;;;;;;;;;;5092002;28;1604;-64
2021/01/28 11:28:53;;;;;;;;;;;;;;;;;;5080264;28;5968;-65
2021/01/28 11:31:18;;;;;;;;;;;;;;;;;;5083505;28;6271;-64
2021/01/28 11:33:44;;;;;;;;;;;;;;;;;;5078778;28;5902;-64
2021/01/28 11:36:09;;;;;;;;;;;;;;;;;;5074693;28;5774;-66
2021/01/28 11:38:34;;;;;;;;;;;;;;;;;;5077277;28;1599;-66
2021/01/28 11:41:02;;;;;;;;;;;;;;;;;;5087533;28;5070;-66
2021/01/28 11:43:27;;;;;;;;;;;;;;;;;;5089904;28;6072;-65
2021/01/28 11:45:53;;;;;;;;;;;;;;;;;;5083512;28;6043;-66
2021/01/28 11:48:18;;;;;;;;;;;;;;;;;;5076338;28;5140;-64
2021/01/28 11:50:44;;;;;;;;;;;;;;;;;;5081360;28;3312;-63
2021/01/28 11:53:09;;;;;;;;;;;;;;;;;;5089988;28;6120;-66
2021/01/28 11:55:35;;;;;;;;;;;;;;;;;;5078848;28;5580;-65
2021/01/28 11:58:01;;;;;;;;;;;;;;;;;;5082110;28;5716;-64
2021/01/28 12:00:27;;;;;;;;;;;;;;;;;;5083613;28;3352;-64
2021/01/28 12:02:52;;;;;;;;;;;;;;;;;;5082689;28;5819;-65
2021/01/28 12:05:19;;;;;;;;;;;;;;;;;;5083657;28;2916;-65
2021/01/28 12:07:45;;;;;;;;;;;;;;;;;;5084492;28;5932;-65
2021/01/28 12:10:11;;;;;;;;;;;;;;;;;;5082021;28;5980;-65
2021/01/28 12:12:37;;;;;;;;;;;;;;;;;;5077779;28;5689;-65
2021/01/28 12:15:03;;;;;;;;;;;;;;;;;;5083337;28;5723;-65
2021/01/28 12:17:28;;;;;;;;;;;;;;;;;;5073606;28;3830;-67
2021/01/28 12:19:53;;;;;;;;;;;;;;;;;;5085879;28;3134;-64
2021/01/28 12:22:18;;;;;;;;;;;;;;;;;;5088574;28;5156;-65
2021/01/28 12:24:45;;;;;;;;;;;;;;;;;;5073551;28;5667;-65
2021/01/28 12:27:10;;;;;;;;;;;;;;;;;;5085286;28;5068;-71
2021/01/28 12:29:35;;;;;;;;;;;;;;;;;;5077324;28;2947;-72
2021/01/28 12:32:00;;;;;;;;;;;;;;;;;;5076805;28;6272;-75
2021/01/28 12:34:26;;;;;;;;;;;;;;;;;;5093514;28;5971;-74
2021/01/28 12:36:51;;;;;;;;;;;;;;;;;;5096275;28;6053;-75
2021/01/28 12:39:16;;;;;;;;;;;;;;;;;;5092995;28;5653;-74
2021/01/28 12:41:42;;;;;;;;;;;;;;;;;;5086368;28;3166;-76
2021/01/28 12:44:07;;;;;;;;;;;;;;;;;;5091815;28;5980;-74
2021/01/28 12:46:32;;;;;;;;;;;;;;;;;;5093207;28;5776;-74
2021/01/28 12:48:58;;;;;;;;;;;;;;;;;;5094321;28;6172;-74
2021/01/28 12:51:23;;;;;;;;;;;;;;;;;;5088972;28;5663;-74
2021/01/28 12:53:48;;;;;;;;;;;;;;;;;;5076572;28;4713;-74
2021/01/28 12:56:14;;;;;;;;;;;;;;;;;;5076728;28;3212;-73
2021/01/28 12:58:39;;;;;;;;;;;;;;;;;;5076830;28;5860;-74
2021/01/28 13:01:04;;;;;;;;;;;;;;;;;;5091246;28;5078;-75
2021/01/28 13:03:30;;;;;;;;;;;;;;;;;;5091655;28;5927;-75
2021/01/28 13:05:55;;;;;;;;;;;;;;;;;;5090449;28;5774;-75
2021/01/28 13:08:20;;;;;;;;;;;;;;;;;;5094213;28;3045;-75
2021/01/28 13:10:45;;;;;;;;;;;;;;;;;;5073608;28;5329;-75
2021/01/28 13:13:11;;;;;;;;;;;;;;;;;;5093249;28;6002;-75
2021/01/28 13:15:36;;;;;;;;;;;;;;;;;;5092483;28;5619;-74
2021/01/28 13:18:02;;;;;;;;;;;;;;;;;;5092593;28;5286;-75
2021/01/28 13:20:29;;;;;;;;;;;;;;;;;;5083932;28;3041;-74
2021/01/28 13:22:55;;;;;;;;;;;;;;;;;;5083277;28;4559;-74
2021/01/28 13:25:20;;;;;;;;;;;;;;;;;;5091972;28;5790;-73
2021/01/28 13:27:45;;;;;;;;;;;;;;;;;;5088864;28;5806;-74
2021/01/28 13:30:13;;;;;;;;;;;;;;;;;;5079745;28;5764;-71
2021/01/28 13:32:39;;;;;;;;;;;;;;;;;;5091940;28;4388;-74
2021/01/28 13:35:06;;;;;;;;;;;;;;;;;;5082226;28;5619;-74
2021/01/28 13:37:32;;;;;;;;;;;;;;;;;;5091836;28;5610;-74
2021/01/28 13:39:57;;;;;;;;;;;;;;;;;;5083834;28;3199;-74
2021/01/28 13:42:22;;;;;;;;;;;;;;;;;;5086505;28;6057;-74
2021/01/28 13:44:48;;;;;;;;;;;;;;;;;;5073636;28;6263;-74
2021/01/28 13:47:13;;;;;;;;;;;;;;;;;;5094226;28;3261;-74
2021/01/28 13:49:38;;;;;;;;;;;;;;;;;;5090529;28;5559;-64
2021/01/28 13:52:04;;;;;;;;;;;;;;;;;;5090305;28;5697;-71
2021/01/28 13:54:29;;;;;;;;;;;;;;;;;;5097472;28;5610;-71
2021/01/28 13:56:54;;;;;;;;;;;;;;;;;;5092362;28;5707;-72
2021/01/28 13:59:20;;;;;;;;;;;;;;;;;;5086563;28;3021;-71
2021/01/28 14:01:45;;;;;;;;;;;;;;;;;;5082068;28;6050;-70
2021/01/28 14:04:10;;;;;;;;;;;;;;;;;;5088536;28;3373;-68
2021/01/28 14:06:35;;;;;;;;;;;;;;;;;;5081133;28;5631;-69
2021/01/28 14:09:00;;;;;;;;;;;;;;;;;;5081153;28;4063;-69
2021/01/28 14:11:26;;;;;;;;;;;;;;;;;;5092951;28;3173;-69
2021/01/28 14:13:51;;;;;;;;;;;;;;;;;;5090669;28;5905;-69
2021/01/28 14:16:16;;;;;;;;;;;;;;;;;;5093753;28;5136;-70
2021/01/28 14:18:42;;;;;;;;;;;;;;;;;;5063534;28;5135;-71
2021/01/28 14:21:08;;;;;;;;;;;;;;;;;;5089892;28;5212;-69
2021/01/28 14:23:33;;;;;;;;;;;;;;;;;;5076350;28;3249;-71
2021/01/28 14:25:58;;;;;;;;;;;;;;;;;;5078016;28;5247;-69
2021/01/28 14:28:23;;;;;;;;;;;;;;;;;;5080511;28;5210;-70
2021/01/28 14:30:49;;;;;;;;;;;;;;;;;;5080594;28;5104;-71
2021/01/28 14:33:14;;;;;;;;;;;;;;;;;;5079563;28;4978;-69
2021/01/28 14:35:40;;;;;;;;;;;;;;;;;;5078511;28;1623;-67
2021/01/28 14:38:05;;;;;;;;;;;;;;;;;;5085103;28;5265;-66
2021/01/28 14:40:31;;;;;;;;;;;;;;;;;;5074700;28;5238;-74
2021/01/28 14:42:56;;;;;;;;;;;;;;;;;;5079074;28;5029;-75
2021/01/28 14:45:22;;;;;;;;;;;;;;;;;;5091188;28;6036;-71
2021/01/28 14:47:48;;;;;;;;;;;;;;;;;;5093571;28;4766;-68
2021/01/28 14:50:14;;;;;;;;;;;;;;;;;;5081979;28;3217;-72
2021/01/28 14:52:39;;;;;;;;;;;;;;;;;;5074419;28;6024;-71
2021/01/28 14:55:05;;;;;;;;;;;;;;;;;;5079435;28;5446;-70
2021/01/28 14:57:30;;;;;;;;;;;;;;;;;;5073146;28;5452;-67
2021/01/28 14:59:56;;;;;;;;;;;;;;;;;;5073895;28;4997;-66
2021/01/28 15:02:21;;;;;;;;;;;;;;;;;;5074087;28;2944;-66
2021/01/28 15:04:46;;;;;;;;;;;;;;;;;;5074925;28;5016;-74
2021/01/28 15:07:12;;;;;;;;;;;;;;;;;;5083349;28;5318;-75
2021/01/28 15:09:37;;;;;;;;;;;;;;;;;;5085477;28;5144;-76
2021/01/28 15:12:02;;;;;;;;;;;;;;;;;;5085222;28;5040;-79
2021/01/28 15:14:27;;;;;;;;;;;;;;;;;;5084223;28;2935;-76
2021/01/28 15:16:53;;;;;;;;;;;;;;;;;;5085338;28;5498;-78
2021/01/28 15:19:18;;;;;;;;;;;;;;;;;;5080329;28;6237;-74
2021/01/28 15:21:43;;;;;;;;;;;;;;;;;;5089681;28;5802;-74
2021/01/28 15:24:09;;;;;;;;;;;;;;;;;;5075343;28;5818;-74
2021/01/28 15:26:34;;;;;;;;;;;;;;;;;;5074544;28;4471;-73
2021/01/28 15:29:01;;;;;;;;;;;;;;;;;;4729830;28;9999688;-74
2021/01/28 15:31:26;;;;;;;;;;;;;;;;;;5086687;28;5213;-74
2021/01/28 15:33:51;;;;;;;;;;;;;;;;;;5087496;28;5132;-74
2021/01/28 15:36:16;;;;;;;;;;;;;;;;;;5086369;28;5300;-75
2021/01/28 15:38:42;;;;;;;;;;;;;;;;;;5080002;28;3095;-74
2021/01/28 15:41:07;;;;;;;;;;;;;;;;;;5085358;28;5673;-75
2021/01/28 15:43:32;;;;;;;;;;;;;;;;;;5086759;28;5238;-74
2021/01/28 15:45:58;;;;;;;;;;;;;;;;;;5075311;28;5164;-74
2021/01/28 15:48:24;;;;;;;;;;;;;;;;;;5086817;28;5228;-74
2021/01/28 15:50:50;;;;;;;;;;;;;;;;;;5089842;28;5062;-75
2021/01/28 15:53:15;;;;;;;;;;;;;;;;;;5070592;28;3209;-75
2021/01/28 15:55:41;;;;;;;;;;;;;;;;;;5071238;28;5778;-75
2021/01/28 15:58:06;;;;;;;;;;;;;;;;;;5067499;28;5562;-74
2021/01/28 16:00:32;;;;;;;;;;;;;;;;;;5070074;28;5339;-74
2021/01/28 16:02:57;;;;;;;;;;;;;;;;;;5072625;28;4665;-75
2021/01/28 16:05:22;;;;;;;;;;;;;;;;;;5070687;28;3213;-71
2021/01/28 16:07:48;;;;;;;;;;;;;;;;;;5083296;28;5508;-78
2021/01/28 16:10:13;;;;;;;;;;;;;;;;;;5099424;28;5146;-78
2021/01/28 16:12:38;;;;;;;;;;;;;;;;;;5080845;28;5545;-77
2021/01/28 16:15:05;;;;;;;;;;;;;;;;;;5081408;28;5660;-77
2021/01/28 16:17:30;;;;;;;;;;;;;;;;;;5088460;28;1794;-77
2021/01/28 16:19:56;;;;;;;;;;;;;;;;;;5088854;28;5598;-77
2021/01/28 16:22:25;;;;;;;;;;;;;;;;;;5070637;28;5918;-78
2021/01/28 16:24:50;;;;;;;;;;;;;;;;;;5086781;28;5666;-78
2021/01/28 16:27:15;;;;;;;;;;;;;;;;;;5074321;28;5640;-78
2021/01/28 16:29:41;;;;;;;;;;;;;;;;;;5086686;28;2899;-77
2021/01/28 16:32:06;;;;;;;;;;;;;;;;;;5075885;28;5206;-77
2021/01/28 16:34:31;;;;;;;;;;;;;;;;;;5075855;28;5984;-70
2021/01/28 16:36:56;;;;;;;;;;;;;;;;;;5079105;28;5719;-70
2021/01/28 16:39:21;;;;;;;;;;;;;;;;;;5073633;28;4979;-70
2021/01/28 16:41:47;;;;;;;;;;;;;;;;;;5098545;28;1656;-76
2021/01/28 16:44:13;;;;;;;;;;;;;;;;;;5074613;28;5386;-78
2021/01/28 16:46:38;;;;;;;;;;;;;;;;;;5080896;28;5173;-75
2021/01/28 16:49:05;;;;;;;;;;;;;;;;;;5088999;28;5954;-74
2021/01/28 16:51:30;;;;;;;;;;;;;;;;;;5104403;28;5018;-70
2021/01/28 16:53:55;;;;;;;;;;;;;;;;;;5088076;28;5685;-71
2021/01/28 16:56:20;;;;;;;;;;;;;;;;;;5068410;28;2732;-74
2021/01/28 16:58:46;;;;;;;;;;;;;;;;;;5069565;28;5962;-74
2021/01/28 17:01:11;;;;;;;;;;;;;;;;;;5069167;28;5873;-74
2021/01/28 17:03:36;;;;;;;;;;;;;;;;;;5073936;28;5828;-72
2021/01/28 17:06:02;;;;;;;;;;;;;;;;;;5084691;28;5628;-72